.
WxDataArchive / Data Records for 2009-04-10
2009-04-09 April 2009 2009-04-11

Data Records for Friday, 10 April 2009

Time	Temp	Chill	HIndex	Humid	Dewpt	 Wind 	HiWind	WindDir	Rain 	Barom 
-----	----	-----	------	-----	-----	------	------	-------	-----	----- 
00:00	46.4	46.4	46.4	43	25.1	0	2	338	0.00	29.914 
00:05	46.4	46.4	46.4	42	24.6	0	1	338	0.00	29.914 
00:10	46.4	46.4	46.4	42	24.6	0	2	0	0.00	29.914 
00:15	46.4	46.4	46.4	42	24.6	0	1	22	0.00	29.910 
00:20	46.4	46.4	46.4	42	24.6	0	1	22	0.00	29.910 
00:25	46.2	46.2	46.2	42	24.4	0	1	22	0.00	29.910 
00:30	46.1	46.1	46.1	43	24.9	0	1	22	0.00	29.906 
00:35	46.0	46.0	46.0	42	24.2	0	3	45	0.00	29.906 
00:40	46.0	46.0	46.0	43	24.8	0	2	45	0.00	29.906 
00:45	46.0	46.0	46.0	42	24.2	0	2	45	0.00	29.899 
00:50	45.8	45.8	45.8	42	24.0	0	2	45	0.00	29.899 
00:55	45.8	45.8	45.8	42	24.0	0	2	45	0.00	29.899 
01:00	45.7	45.7	45.7	43	24.5	0	1	45	0.00	29.894 
01:05	45.7	45.7	45.7	43	24.5	0	2	45	0.00	29.894 
01:10	45.5	45.5	45.5	43	24.3	0	1	45	0.00	29.894 
01:15	45.4	45.4	45.4	44	24.8	0	2	45	0.00	29.892 
01:20	45.4	45.4	45.4	43	24.2	0	2	45	0.00	29.892 
01:25	45.2	45.2	45.2	43	24.0	0	1	45	0.00	29.892 
01:30	45.2	45.2	45.2	44	24.6	0	1	45	0.00	29.885 
01:35	45.1	45.1	45.1	44	24.5	0	2	45	0.00	29.885 
02:40	44.9	44.9	44.9	44	24.3	0	2	45	0.00	29.885 
02:45	44.8	44.8	44.8	45	24.8	0	2	45	0.00	29.879 
02:50	44.8	44.8	44.8	44	24.2	0	2	45	0.00	29.879 
02:55	44.6	44.6	44.6	44	24.1	0	2	68	0.00	29.879 
03:00	44.6	44.6	44.6	44	24.1	0	2	68	0.00	29.874 
03:05	44.6	44.6	44.6	44	24.1	0	2	68	0.00	29.874 
03:10	44.6	44.6	44.6	43	23.5	0	2	68	0.00	29.874 
03:15	44.6	44.6	44.6	44	24.1	0	3	68	0.00	29.874 
03:20	44.5	44.5	44.5	44	24.0	0	2	68	0.00	29.874 
03:25	44.5	44.5	44.5	44	24.0	0	2	90	0.00	29.874 
03:30	44.3	44.3	44.3	44	23.8	0	3	90	0.00	29.873 
03:35	44.3	44.3	44.3	44	23.8	0	2	90	0.00	29.873 
03:40	44.3	44.3	44.3	44	23.8	0	2	90	0.00	29.873 
03:45	44.3	44.3	44.3	43	23.2	1	3	45	0.00	29.872 
03:50	44.5	44.5	44.5	43	23.4	0	2	45	0.00	29.872 
03:55	44.5	44.5	44.5	43	23.4	0	2	45	0.00	29.872 
04:00	44.5	44.5	44.5	43	23.4	1	3	45	0.00	29.869 
04:05	44.5	44.5	44.5	43	23.4	0	2	45	0.00	29.869 
04:10	44.3	44.3	44.3	44	23.8	0	2	45	0.00	29.869 
04:15	44.3	44.3	44.3	44	23.8	1	2	45	0.00	29.879 
04:20	44.3	44.3	44.3	43	23.2	1	2	45	0.00	29.879 
04:25	44.3	44.3	44.3	44	23.8	1	4	45	0.00	29.879 
04:30	44.3	44.3	44.3	44	23.8	0	2	45	0.00	29.879 
04:35	44.2	44.2	44.2	44	23.7	0	2	45	0.00	29.879 
04:40	44.2	44.2	44.2	45	24.2	0	2	45	0.00	29.879 
04:45	44.2	44.2	44.2	45	24.2	0	2	45	0.00	29.880 
04:50	44.2	44.2	44.2	45	24.2	0	2	45	0.00	29.880 
04:55	44.1	44.1	44.1	45	24.1	0	2	45	0.00	29.880 
05:00	44.1	44.1	44.1	45	24.1	0	2	45	0.00	29.878 
05:05	44.1	44.1	44.1	45	24.1	1	3	45	0.00	29.878 
05:10	44.1	44.1	44.1	46	24.7	1	4	112	0.00	29.878 
05:15	44.1	44.1	44.1	47	25.2	0	3	112	0.00	29.879 
05:20	43.9	43.9	43.9	47	25.0	1	4	112	0.00	29.879 
05:25	43.9	43.9	43.9	48	25.5	1	3	112	0.00	29.879 
05:30	43.8	43.8	43.8	49	25.9	0	2	112	0.00	29.879 
05:35	43.8	43.8	43.8	48	25.4	1	3	112	0.00	29.879 
05:40	43.8	43.8	43.8	49	25.9	1	2	112	0.00	29.879 
05:45	43.8	43.8	43.8	49	25.9	1	3	112	0.00	29.878 
05:50	43.8	43.8	43.8	49	25.9	1	3	112	0.00	29.878 
05:55	43.6	43.6	43.6	50	26.2	1	5	112	0.00	29.878 
06:00	43.5	43.5	43.5	50	26.1	1	3	90	0.00	29.878 
06:05	43.3	43.3	43.3	50	25.9	2	5	90	0.00	29.878 
06:10	43.3	43.3	43.3	50	25.9	2	5	112	0.00	29.878 
06:15	43.2	43.2	43.2	50	25.8	3	7	112	0.00	29.879 
06:20	43.1	43.1	43.1	50	25.7	2	7	112	0.00	29.879 
06:25	43.1	43.1	43.1	51	26.2	3	6	112	0.00	29.879 
06:30	42.9	42.9	42.9	52	26.5	2	7	112	0.00	29.879 
06:35	42.8	42.8	42.8	52	26.4	2	7	112	0.00	29.879 
06:40	42.8	42.8	42.8	53	26.9	2	6	90	0.00	29.879 
06:45	42.6	42.6	42.6	53	26.7	2	7	112	0.00	29.874 
06:50	42.6	42.6	42.6	53	26.7	2	6	90	0.00	29.874 
06:55	42.5	42.5	42.5	54	27.0	2	6	112	0.00	29.874 
07:00	42.5	42.5	42.5	54	27.0	2	4	112	0.00	29.872 
07:05	42.5	42.5	42.5	55	27.5	2	5	112	0.00	29.872 
07:10	42.3	42.3	42.3	55	27.3	1	5	112	0.00	29.872 
07:15	42.3	42.3	42.3	55	27.3	2	6	112	0.00	29.877 
07:20	42.3	42.3	42.3	56	27.7	2	7	112	0.00	29.877 
07:25	42.2	39.9	42.2	57	28.1	4	10	112	0.00	29.877 
07:30	42.1	39.7	42.1	58	28.4	4	13	112	0.00	29.878 
07:35	41.9	41.9	41.9	59	28.6	3	6	112	0.00	29.878 
07:40	41.8	41.8	41.8	60	28.9	3	9	112	0.00	29.878 
07:45	41.8	41.8	41.8	61	29.4	3	7	112	0.00	29.879 
07:50	41.6	41.6	41.6	62	29.6	2	5	90	0.00	29.879 
07:55	41.6	41.6	41.6	63	30.0	3	7	112	0.00	29.879 
08:00	41.6	41.6	41.6	64	30.3	3	7	112	0.00	29.884 
08:05	41.5	41.5	41.5	64	30.2	3	7	112	0.00	29.884 
08:10	41.3	41.3	41.3	65	30.4	2	6	90	0.00	29.884 
08:15	41.3	41.3	41.3	65	30.4	2	9	112	0.00	29.888 
08:20	41.2	41.2	41.2	65	30.3	2	6	112	0.00	29.888 
08:25	41.2	41.2	41.2	65	30.3	3	7	112	0.00	29.888 
08:30	41.2	41.2	41.2	65	30.3	2	6	112	0.00	29.901 
08:35	41.2	41.2	41.2	66	30.7	1	4	90	0.00	29.901 
08:40	41.2	41.2	41.2	66	30.7	2	7	112	0.00	29.901 
08:45	41.1	41.1	41.1	66	30.6	2	6	90	0.00	29.899 
08:50	41.1	41.1	41.1	66	30.6	2	7	112	0.00	29.899 
08:55	41.1	41.1	41.1	67	31.0	2	6	68	0.00	29.899 
09:00	41.1	41.1	41.1	67	31.0	3	10	112	0.00	29.899 
09:05	40.9	40.9	40.9	66	30.4	3	10	112	0.00	29.899 
09:10	40.9	40.9	40.9	66	30.4	2	5	45	0.00	29.899 
09:15	40.9	40.9	40.9	65	30.1	2	10	22	0.00	29.890 
09:20	40.9	40.9	40.9	65	30.1	3	6	112	0.00	29.890 
09:25	40.9	40.9	40.9	65	30.1	3	7	45	0.00	29.890 
09:30	40.8	38.2	40.8	65	30.0	4	10	22	0.00	29.876 
09:35	40.8	38.2	40.8	66	30.3	4	12	90	0.00	29.876 
09:40	41.1	41.1	41.1	65	30.2	3	10	90	0.00	29.876 
09:45	41.1	41.1	41.1	66	30.6	3	10	112	0.00	29.875 
09:50	41.2	41.2	41.2	65	30.3	3	9	112	0.00	29.875 
09:55	41.5	39.1	41.5	65	30.6	4	12	112	0.00	29.875 
10:00	41.6	39.2	41.6	65	30.7	4	10	112	0.00	29.871 
10:05	41.8	41.8	41.8	65	30.9	3	12	112	0.00	29.871 
10:10	41.9	38.0	41.9	65	31.0	6	12	90	0.00	29.871 
10:15	42.1	38.9	42.1	65	31.2	5	10	112	0.00	29.870 
10:20	42.8	42.8	42.8	66	32.2	3	8	112	0.00	29.870 
10:25	43.1	40.9	43.1	65	32.1	4	12	112	0.00	29.870 
10:30	43.2	40.2	43.2	65	32.2	5	13	112	0.00	29.866 
10:35	43.5	39.9	43.5	64	32.1	6	11	112	0.00	29.866 
10:40	43.5	40.6	43.5	63	31.8	5	13	112	0.00	29.866 
10:45	43.5	39.9	43.5	64	32.1	6	15	90	0.00	29.871 
10:50	43.5	41.4	43.5	65	32.5	4	10	112	0.00	29.871 
10:55	43.6	40.0	43.6	65	32.6	6	14	112	0.00	29.871 
11:00	43.5	39.4	43.5	64	32.1	7	13	112	0.00	29.872 
11:05	43.5	43.5	43.5	65	32.5	3	10	112	0.00	29.872 
11:10	43.5	41.4	43.5	65	32.5	4	10	112	0.00	29.872 
11:15	43.5	43.5	43.5	65	32.5	3	7	112	0.00	29.879 
11:20	43.5	43.5	43.5	67	33.3	3	8	90	0.00	29.879 
11:25	43.5	41.4	43.5	69	34.0	4	13	90	0.00	29.879 
11:30	43.5	43.5	43.5	70	34.4	3	7	90	0.00	29.888 
11:35	43.3	43.3	43.3	74	35.6	2	5	112	0.00	29.888 
11:40	43.2	43.2	43.2	75	35.8	3	9	112	0.01	29.888 
11:45	43.1	43.1	43.1	77	36.4	1	7	112	0.01	29.889 
11:50	42.8	42.8	42.8	78	36.4	2	5	45	0.00	29.889 
11:55	42.8	42.8	42.8	80	37.1	1	3	112	0.01	29.889 
12:00	42.6	42.6	42.6	81	37.2	1	6	90	0.00	29.893 
12:05	42.6	42.6	42.6	81	37.2	1	3	112	0.01	29.893 
12:10	42.5	42.5	42.5	82	37.4	1	5	112	0.00	29.893 
12:15	42.5	42.5	42.5	82	37.4	1	5	112	0.01	29.902 
12:20	42.5	42.5	42.5	82	37.4	1	4	90	0.00	29.902 
12:25	42.5	42.5	42.5	83	37.7	1	5	90	0.00	29.902 
12:30	42.5	42.5	42.5	83	37.7	2	4	112	0.00	29.903 
12:35	42.5	42.5	42.5	84	38.0	1	5	112	0.01	29.903 
12:40	42.5	42.5	42.5	84	38.0	2	5	112	0.00	29.903 
12:45	42.5	42.5	42.5	84	38.0	2	5	68	0.00	29.905 
12:50	42.5	42.5	42.5	84	38.0	1	3	22	0.00	29.905 
12:55	42.5	42.5	42.5	84	38.0	2	4	45	0.00	29.905 
13:00	42.5	42.5	42.5	84	38.0	1	4	90	0.00	29.912 
13:05	42.5	42.5	42.5	84	38.0	1	4	45	0.00	29.912 
13:10	42.6	42.6	42.6	85	38.4	1	4	112	0.00	29.912 
13:15	42.5	42.5	42.5	85	38.3	1	4	158	0.01	29.916 
13:20	42.5	42.5	42.5	84	38.0	1	6	0	0.00	29.916 
13:25	42.5	42.5	42.5	85	38.3	2	6	45	0.00	29.916 
13:30	42.6	42.6	42.6	85	38.4	1	7	45	0.01	29.918 
13:35	42.6	42.6	42.6	85	38.4	2	6	68	0.00	29.918 
13:40	42.6	42.6	42.6	85	38.4	2	6	112	0.01	29.918 
13:45	42.6	42.6	42.6	85	38.4	1	5	68	0.00	29.923 
13:50	42.6	42.6	42.6	85	38.4	2	6	135	0.00	29.923 
13:55	42.6	42.6	42.6	85	38.4	2	5	22	0.01	29.923 
14:00	42.8	42.8	42.8	85	38.6	3	7	112	0.00	29.923 
14:05	42.8	42.8	42.8	85	38.6	1	3	90	0.00	29.923 
14:10	42.8	42.8	42.8	85	38.6	2	4	112	0.00	29.923 
14:15	42.8	42.8	42.8	85	38.6	2	6	112	0.00	29.928 
14:20	42.8	42.8	42.8	84	38.3	2	5	68	0.00	29.928 
14:25	42.8	42.8	42.8	84	38.3	2	5	22	0.01	29.928 
14:30	42.8	42.8	42.8	85	38.6	2	7	68	0.01	29.928 
14:35	42.9	42.9	42.9	86	39.0	2	6	90	0.01	29.928 
14:40	42.9	42.9	42.9	86	39.0	2	5	68	0.01	29.928 
14:45	42.9	42.9	42.9	86	39.0	1	4	68	0.00	29.935 
14:50	43.1	43.1	43.1	87	39.5	1	3	68	0.01	29.935 
14:55	43.1	43.1	43.1	87	39.5	1	5	45	0.01	29.935 
15:00	43.1	43.1	43.1	87	39.5	2	7	22	0.00	29.932 
15:05	42.9	42.9	42.9	86	39.0	2	7	45	0.01	29.932 
15:10	42.9	42.9	42.9	86	39.0	3	7	22	0.00	29.932 
15:15	42.9	42.9	42.9	86	39.0	1	7	22	0.01	29.926 
15:20	42.9	42.9	42.9	86	39.0	2	6	45	0.00	29.926 
15:25	42.9	42.9	42.9	85	38.7	2	6	45	0.00	29.926 
15:30	42.9	42.9	42.9	86	39.0	3	10	112	0.00	29.912 
15:35	42.9	42.9	42.9	85	38.7	3	9	45	0.01	29.912 
15:40	43.1	43.1	43.1	86	39.2	3	10	68	0.00	29.912 
15:45	43.1	43.1	43.1	86	39.2	3	8	22	0.01	29.907 
15:50	43.3	41.1	43.3	86	39.4	4	8	112	0.00	29.907 
15:55	43.6	43.6	43.6	85	39.4	2	10	45	0.00	29.907 
16:00	43.6	43.6	43.6	84	39.1	3	13	45	0.00	29.910 
16:05	43.9	43.9	43.9	84	39.4	3	9	112	0.00	29.910 
16:10	44.2	44.2	44.2	83	39.4	3	10	90	0.00	29.910 
16:15	44.5	44.5	44.5	81	39.0	3	10	112	0.00	29.908 
16:20	44.8	44.8	44.8	81	39.3	3	10	22	0.00	29.908 
16:25	44.9	44.9	44.9	79	38.8	3	11	45	0.00	29.908 
16:30	45.2	43.3	45.2	78	38.8	4	10	90	0.00	29.909 
16:35	45.2	43.3	45.2	76	38.1	4	14	45	0.00	29.909 
16:40	45.5	45.5	45.5	76	38.4	3	7	112	0.00	29.909 
16:45	45.5	45.5	45.5	74	37.7	3	9	45	0.00	29.910 
16:50	45.5	43.7	45.5	73	37.4	4	11	45	0.00	29.910 
16:55	45.5	43.7	45.5	74	37.7	4	12	112	0.00	29.910 
17:00	45.5	43.7	45.5	73	37.4	4	12	90	0.00	29.906 
17:05	45.5	43.7	45.5	74	37.7	4	11	45	0.00	29.906 
17:10	45.7	45.7	45.7	75	38.2	3	9	45	0.00	29.906 
17:15	45.8	44.0	45.8	74	38.0	4	11	45	0.00	29.903 
17:20	46.0	46.0	46.0	73	37.8	3	9	22	0.00	29.903 
17:25	46.1	44.4	46.1	73	37.9	4	13	68	0.00	29.903 
17:30	46.2	44.5	46.2	71	37.3	4	10	112	0.00	29.896 
17:35	46.4	46.4	46.4	71	37.5	3	7	22	0.00	29.896 
17:40	46.5	44.8	46.5	69	36.9	4	12	112	0.00	29.896 
17:45	46.7	45.1	46.7	68	36.7	4	10	22	0.00	29.891 
17:50	46.8	46.8	46.8	69	37.2	2	9	112	0.00	29.891 
17:55	46.8	46.8	46.8	67	36.4	3	10	45	0.00	29.891 
18:00	47.0	47.0	47.0	68	37.0	2	7	22	0.00	29.895 
18:05	47.0	47.0	47.0	67	36.6	3	11	112	0.00	29.895 
18:10	46.8	45.2	46.8	67	36.4	4	13	112	0.00	29.895 
18:15	46.8	46.8	46.8	68	36.8	3	11	112	0.00	29.906 
18:20	46.7	46.7	46.7	68	36.7	3	9	112	0.00	29.906 
18:25	46.5	44.8	46.5	68	36.5	4	10	112	0.00	29.906 
18:30	46.5	46.5	46.5	67	36.1	3	9	112	0.00	29.910 
18:35	46.4	44.7	46.4	66	35.7	4	10	112	0.00	29.910 
18:40	46.4	44.7	46.4	67	36.0	4	9	112	0.00	29.910 
18:45	46.4	44.7	46.4	68	36.4	4	9	112	0.00	29.921 
18:50	46.2	46.2	46.2	68	36.2	3	9	112	0.00	29.921 
18:55	46.2	46.2	46.2	69	36.6	2	7	112	0.00	29.921 
19:00	46.1	46.1	46.1	69	36.5	2	7	112	0.00	29.931 
19:05	46.1	46.1	46.1	69	36.5	2	6	112	0.00	29.931 
19:10	46.1	46.1	46.1	69	36.5	2	4	90	0.00	29.931 
19:15	46.1	46.1	46.1	69	36.5	3	10	90	0.00	29.937 
19:20	46.1	46.1	46.1	71	37.2	1	3	112	0.00	29.937 
19:25	46.1	46.1	46.1	70	36.9	1	5	90	0.00	29.937 
19:30	46.1	46.1	46.1	70	36.9	1	6	112	0.00	29.941 
19:35	46.0	46.0	46.0	70	36.8	2	5	112	0.00	29.941 
19:40	46.0	46.0	46.0	70	36.8	2	7	112	0.00	29.941 
19:45	46.0	46.0	46.0	70	36.8	2	6	112	0.00	29.945 
19:50	46.0	46.0	46.0	71	37.1	1	5	90	0.00	29.945 
19:55	45.8	45.8	45.8	71	36.9	2	7	112	0.00	29.945 
20:00	45.8	45.8	45.8	70	36.6	1	4	90	0.00	29.948 
20:05	45.8	45.8	45.8	70	36.6	1	4	112	0.00	29.948 
20:10	45.7	45.7	45.7	70	36.5	1	3	45	0.00	29.948 
20:15	45.7	45.7	45.7	71	36.8	1	5	112	0.00	29.954 
20:20	45.5	45.5	45.5	70	36.3	1	4	68	0.00	29.954 
20:25	45.5	45.5	45.5	69	35.9	1	4	68	0.00	29.954 
20:30	45.5	45.5	45.5	68	35.6	2	6	45	0.00	29.956 
20:35	45.7	45.7	45.7	67	35.4	3	9	112	0.00	29.956 
20:40	45.7	45.7	45.7	67	35.4	3	8	90	0.00	29.956 
20:45	45.7	45.7	45.7	67	35.4	3	11	90	0.00	29.957 
20:50	45.5	45.5	45.5	68	35.6	2	6	112	0.00	29.957 
20:55	45.2	45.2	45.2	68	35.3	2	7	90	0.00	29.957 
21:00	45.1	45.1	45.1	68	35.2	2	4	45	0.00	29.960 
21:05	44.9	44.9	44.9	68	35.0	2	6	112	0.00	29.960 
21:10	44.8	44.8	44.8	68	34.9	1	4	112	0.00	29.960 
21:15	44.8	44.8	44.8	68	34.9	1	6	45	0.00	29.969 
21:20	44.8	44.8	44.8	66	34.1	1	4	45	0.00	29.969 
21:25	44.8	44.8	44.8	65	33.8	2	7	90	0.00	29.969 
21:30	44.9	44.9	44.9	64	33.5	3	7	90	0.00	29.971 
21:35	44.9	44.9	44.9	64	33.5	2	6	90	0.00	29.971 
21:40	44.8	44.8	44.8	64	33.4	2	5	90	0.00	29.971 
21:45	44.8	44.8	44.8	64	33.4	2	6	45	0.00	29.982 
21:50	44.8	44.8	44.8	64	33.4	2	7	45	0.00	29.982 
21:55	44.6	44.6	44.6	65	33.6	2	5	45	0.00	29.982 
22:00	44.5	44.5	44.5	66	33.9	1	3	68	0.00	29.990 
22:05	44.3	44.3	44.3	68	34.4	1	4	68	0.00	29.990 
22:10	44.3	44.3	44.3	69	34.8	1	3	45	0.00	29.990 
22:15	44.2	44.2	44.2	69	34.7	0	5	45	0.00	29.996 
22:20	44.1	44.1	44.1	69	34.6	1	5	90	0.00	29.996 
22:25	43.9	43.9	43.9	69	34.4	1	5	68	0.00	29.996 
22:30	43.9	43.9	43.9	68	34.0	1	4	45	0.00	30.002 
22:35	43.8	43.8	43.8	69	34.3	0	3	22	0.00	30.002 
22:40	43.6	43.6	43.6	69	34.1	0	1	22	0.00	30.002 
22:45	43.5	43.5	43.5	70	34.4	0	1	22	0.00	30.010 
22:50	43.3	43.3	43.3	71	34.5	0	1	22	0.00	30.010 
22:55	43.1	43.1	43.1	71	34.3	0	1	22	0.00	30.010 
23:00	42.9	42.9	42.9	72	34.5	0	1	22	0.00	30.017 
23:05	42.6	42.6	42.6	73	34.6	0	2	22	0.00	30.017 
23:10	42.6	42.6	42.6	72	34.2	0	4	112	0.00	30.017 
23:15	42.5	42.5	42.5	72	34.1	0	4	112	0.00	30.018 
23:20	42.6	42.6	42.6	70	33.5	1	4	135	0.00	30.018 
23:25	42.6	42.6	42.6	69	33.2	1	6	135	0.00	30.018 
23:30	42.8	42.8	42.8	68	33.0	1	3	135	0.00	30.022 
23:35	42.8	42.8	42.8	66	32.2	1	6	158	0.00	30.022 
23:40	42.9	42.9	42.9	64	31.6	1	5	45	0.00	30.022 
23:45	42.9	42.9	42.9	63	31.2	1	3	135	0.00	30.027 
23:50	42.9	42.9	42.9	63	31.2	0	2	135	0.00	30.027 
23:55	42.8	42.8	42.8	64	31.5	0	2	112	0.00	30.027 

CoCoRaHS
IN-AL-39
A2 Web Hosting
Creative Commons License
GoDaddy
search engine by freefind advanced

loaded 2018-11-20 08:46:32 • last modified 2010-11-18 10:43:29
Privacy PolicyDisclaimer
• wx.awcolley.com is powered by PmWiki v.2002016 •
• all content (unless otherwise noted) © 2018 A W Colley